createdAt,value
2017-11-15T00:01:56.833Z,1.50
2017-11-15T00:04:24.286Z,1.70
2017-11-15T00:06:51.778Z,1.60
2017-11-15T00:09:19.319Z,1.60
2017-11-15T00:11:46.889Z,1.70
2017-11-15T00:14:14.335Z,1.60
2017-11-15T00:16:41.808Z,1.30
2017-11-15T00:19:09.353Z,1.60
2017-11-15T00:21:36.909Z,1.70
2017-11-15T00:24:04.357Z,1.40
2017-11-15T00:26:31.922Z,1.40
2017-11-15T00:28:59.375Z,1.30
2017-11-15T00:31:26.938Z,1.40
2017-11-15T00:33:54.405Z,1.10
2017-11-15T00:36:21.905Z,1.20
2017-11-15T00:38:49.345Z,1.20
2017-11-15T00:41:17.577Z,1.10
2017-11-15T00:43:45.142Z,1.10
2017-11-15T00:46:12.624Z,1.20
2017-11-15T00:48:40.073Z,1.30
2017-11-15T00:51:07.605Z,1.20
2017-11-15T00:53:35.166Z,1.40
2017-11-15T00:56:02.727Z,1.30
2017-11-15T00:58:30.282Z,1.20
2017-11-15T01:00:57.730Z,1.30
2017-11-15T01:03:25.301Z,1.30
2017-11-15T01:05:52.750Z,1.10
2017-11-15T01:08:20.205Z,1.20
2017-11-15T01:10:47.763Z,1.30
2017-11-15T01:13:15.319Z,1.40
2017-11-15T01:15:42.767Z,1.40
2017-11-15T01:18:10.339Z,1.40
2017-11-15T01:20:37.782Z,1.50
2017-11-15T01:23:05.233Z,1.60
2017-11-15T01:25:32.697Z,1.80
2017-11-15T01:28:00.252Z,1.70
2017-11-15T01:30:27.702Z,1.70
2017-11-15T01:32:55.242Z,1.70
2017-11-15T01:35:22.678Z,1.80
2017-11-15T01:37:50.184Z,1.80
2017-11-15T01:40:17.642Z,1.90
2017-11-15T01:42:45.090Z,1.80
2017-11-15T01:45:12.538Z,1.80
2017-11-15T01:47:39.986Z,1.80
2017-11-15T01:50:07.434Z,1.70
2017-11-15T01:52:34.887Z,1.80
2017-11-15T01:55:02.351Z,1.80
2017-11-15T01:57:29.782Z,1.80
2017-11-15T01:59:57.238Z,1.60
2017-11-15T02:02:24.695Z,1.50
2017-11-15T02:04:52.152Z,1.30
2017-11-15T02:07:19.598Z,1.50
2017-11-15T02:09:47.054Z,1.30
2017-11-15T02:12:14.498Z,1.30
2017-11-15T02:14:41.979Z,1.20
2017-11-15T02:17:09.426Z,1.40
2017-11-15T02:19:36.886Z,1.50
2017-11-15T02:22:04.378Z,1.50
2017-11-15T02:24:31.842Z,1.20
2017-11-15T02:26:59.291Z,1.30
2017-11-15T02:29:26.771Z,1.10
2017-11-15T02:31:54.330Z,1.10
2017-11-15T02:34:21.863Z,1.20
2017-11-15T02:36:49.319Z,1.30
2017-11-15T02:39:16.762Z,1.20
2017-11-15T02:41:44.240Z,1.30
2017-11-15T02:44:11.794Z,1.20
2017-11-15T02:46:39.247Z,1.30
2017-11-15T02:49:06.703Z,1.40
2017-11-15T02:51:34.259Z,1.50
2017-11-15T02:54:06.632Z,1.50
2017-11-15T02:56:34.086Z,1.50
2017-11-15T02:59:01.638Z,1.60
2017-11-15T03:01:29.091Z,1.60
2017-11-15T03:03:56.544Z,1.40
2017-11-15T03:06:23.998Z,1.20
2017-11-15T03:08:51.442Z,1.00
2017-11-15T03:11:18.898Z,0.90
2017-11-15T03:13:46.445Z,0.70
2017-11-15T03:16:13.906Z,0.80
2017-11-15T03:18:41.363Z,1.00
2017-11-15T03:21:14.770Z,1.10
2017-11-15T03:23:42.234Z,0.90
2017-11-15T03:26:09.686Z,0.80
2017-11-15T03:28:37.149Z,0.90
2017-11-15T03:31:04.704Z,0.80
2017-11-15T03:33:32.154Z,0.80
2017-11-15T03:36:00.510Z,0.70
2017-11-15T03:38:27.990Z,0.60
2017-11-15T03:40:55.443Z,0.40
2017-11-15T03:43:22.895Z,0.30
2017-11-15T03:45:50.365Z,0.30
2017-11-15T03:48:17.814Z,0.40
2017-11-15T03:50:45.277Z,0.40
2017-11-15T03:53:12.735Z,0.30
2017-11-15T03:55:40.266Z,0.60
2017-11-15T03:58:07.734Z,0.70
2017-11-15T04:00:35.265Z,0.60
2017-11-15T04:03:02.715Z,0.50
2017-11-15T04:05:30.211Z,0.70
2017-11-15T04:07:57.762Z,0.80
2017-11-15T04:10:25.218Z,0.90
2017-11-15T04:12:52.676Z,0.80
2017-11-15T04:15:20.234Z,0.60
2017-11-15T04:17:47.802Z,0.50
2017-11-15T04:20:15.347Z,0.60
2017-11-15T04:22:42.807Z,-0.10
2017-11-15T04:25:10.366Z,-0.20
2017-11-15T04:27:37.930Z,0.00
2017-11-15T04:30:05.366Z,0.20
2017-11-15T04:32:32.848Z,0.20
2017-11-15T04:35:00.310Z,0.40
2017-11-15T04:37:27.749Z,0.40
2017-11-15T04:39:55.269Z,0.50
2017-11-15T04:42:22.810Z,0.70
2017-11-15T04:44:50.277Z,0.80
2017-11-15T04:47:17.722Z,0.50
2017-11-15T04:49:45.176Z,0.30
2017-11-15T04:52:12.623Z,0.20
2017-11-15T04:54:40.843Z,0.40
2017-11-15T04:57:08.302Z,0.40
2017-11-15T04:59:35.758Z,0.60
2017-11-15T05:02:03.203Z,0.80
2017-11-15T05:04:30.695Z,0.70
2017-11-15T05:06:58.139Z,0.40
2017-11-15T05:09:25.689Z,0.40
2017-11-15T05:11:53.342Z,0.30
2017-11-15T05:14:20.808Z,0.50
2017-11-15T05:16:48.267Z,0.60
2017-11-15T05:19:15.814Z,0.70
2017-11-15T05:21:43.258Z,0.60
2017-11-15T05:24:10.831Z,0.50
2017-11-15T05:26:38.382Z,0.70
2017-11-15T05:29:05.833Z,0.70
2017-11-15T05:31:33.402Z,0.80
2017-11-15T05:34:00.854Z,1.00
2017-11-15T05:36:28.313Z,1.00
2017-11-15T05:38:55.770Z,1.00
2017-11-15T05:41:23.251Z,1.10
2017-11-15T05:43:50.683Z,1.00
2017-11-15T05:46:18.143Z,1.10
2017-11-15T05:48:45.593Z,1.00
2017-11-15T05:51:13.050Z,0.80
2017-11-15T05:53:40.532Z,0.70
2017-11-15T05:56:08.775Z,0.80
2017-11-15T05:58:36.357Z,0.70
2017-11-15T06:01:04.721Z,0.60
2017-11-15T06:03:32.270Z,0.60
2017-11-15T06:05:59.817Z,0.60
2017-11-15T06:08:27.388Z,0.60
2017-11-15T06:10:54.842Z,0.60
2017-11-15T06:13:22.360Z,0.40
2017-11-15T06:15:49.811Z,0.30
2017-11-15T06:18:17.214Z,0.30
2017-11-15T06:20:44.839Z,0.40
2017-11-15T06:23:12.321Z,0.60
2017-11-15T06:25:39.695Z,0.80
2017-11-15T06:28:07.188Z,0.80
2017-11-15T06:30:34.623Z,1.00
2017-11-15T06:33:02.274Z,0.80
2017-11-15T06:35:29.724Z,0.80
2017-11-15T06:37:57.120Z,0.80
2017-11-15T06:40:24.530Z,0.70
2017-11-15T06:42:52.015Z,0.60
2017-11-15T06:45:19.470Z,0.50
2017-11-15T06:47:46.946Z,0.40
2017-11-15T06:50:14.398Z,0.40
2017-11-15T06:52:41.964Z,0.70
2017-11-15T06:55:09.407Z,0.80
2017-11-15T06:57:36.859Z,0.60
2017-11-15T07:00:04.323Z,0.60
2017-11-15T07:02:31.778Z,0.80
2017-11-15T07:04:59.266Z,0.60
2017-11-15T07:07:26.819Z,0.40
2017-11-15T07:09:54.270Z,0.40
2017-11-15T07:12:21.730Z,0.30
2017-11-15T07:14:49.185Z,0.60
2017-11-15T07:17:16.629Z,0.60
2017-11-15T07:19:44.098Z,0.40
2017-11-15T07:22:11.659Z,0.60
2017-11-15T07:24:39.150Z,0.70
2017-11-15T07:27:07.366Z,0.40
2017-11-15T07:29:34.847Z,0.40
2017-11-15T07:32:02.372Z,1.30
2017-11-15T07:34:29.810Z,2.20
2017-11-15T07:36:57.314Z,2.10
2017-11-15T07:39:24.873Z,1.30
2017-11-15T07:41:52.334Z,1.30
2017-11-15T07:44:19.785Z,1.30
2017-11-15T07:46:47.245Z,0.90
2017-11-15T07:49:14.690Z,0.90
2017-11-15T07:51:42.424Z,0.90
2017-11-15T07:54:09.915Z,0.70
2017-11-15T07:56:37.535Z,0.80
2017-11-15T07:59:05.010Z,0.60
2017-11-15T08:01:32.509Z,0.80
2017-11-15T08:03:59.974Z,0.60
2017-11-15T08:06:28.195Z,0.90
2017-11-15T08:08:55.637Z,0.80
2017-11-15T08:11:23.230Z,0.80
2017-11-15T08:13:50.757Z,0.90
2017-11-15T08:16:18.247Z,1.10
2017-11-15T08:18:45.796Z,1.00
2017-11-15T08:21:13.357Z,1.00
2017-11-15T08:23:40.807Z,1.00
2017-11-15T08:26:08.267Z,1.00
2017-11-15T08:28:35.791Z,1.00
2017-11-15T08:31:03.350Z,1.10
2017-11-15T08:33:30.831Z,1.20
2017-11-15T08:35:58.288Z,1.20
2017-11-15T08:38:25.920Z,1.40
2017-11-15T08:40:53.357Z,1.20
2017-11-15T08:43:20.803Z,1.30
2017-11-15T08:45:49.030Z,1.30
2017-11-15T08:48:16.499Z,1.30
2017-11-15T08:50:43.954Z,1.50
2017-11-15T08:53:11.503Z,1.80
2017-11-15T08:55:38.960Z,1.80
2017-11-15T08:58:06.588Z,2.00
2017-11-15T09:00:34.070Z,1.50
2017-11-15T09:03:01.518Z,1.60
2017-11-15T09:05:29.058Z,1.60
2017-11-15T09:07:56.507Z,1.50
2017-11-15T09:10:23.962Z,1.70
2017-11-15T09:12:51.422Z,1.40
2017-11-15T09:17:53.633Z,1.50
2017-11-15T09:20:21.083Z,1.40
2017-11-15T09:22:48.543Z,1.40
2017-11-15T09:25:15.995Z,1.50
2017-11-15T09:27:43.458Z,1.40
2017-11-15T09:30:10.911Z,1.30
2017-11-15T09:32:38.375Z,1.60
2017-11-15T09:35:05.826Z,1.50
2017-11-15T09:37:33.282Z,1.70
2017-11-15T09:40:00.726Z,2.00
2017-11-15T09:42:28.187Z,2.10
2017-11-15T09:44:55.638Z,1.70
2017-11-15T09:47:23.085Z,1.70
2017-11-15T09:49:50.538Z,1.90
2017-11-15T09:52:18.010Z,2.10
2017-11-15T09:54:45.463Z,1.90
2017-11-15T09:57:12.922Z,2.10
2017-11-15T09:59:40.379Z,2.20
2017-11-15T10:02:07.857Z,2.10
2017-11-15T10:04:36.086Z,2.20
2017-11-15T10:07:03.569Z,2.10
2017-11-15T10:09:31.118Z,2.20
2017-11-15T10:11:58.674Z,2.30
2017-11-15T10:14:26.230Z,2.40
2017-11-15T10:16:53.674Z,2.60
2017-11-15T10:19:21.253Z,3.10
2017-11-15T10:21:48.695Z,3.30
2017-11-15T10:24:16.155Z,3.50
2017-11-15T10:26:43.725Z,3.60
2017-11-15T10:29:11.274Z,3.80
2017-11-15T10:31:38.731Z,4.00
2017-11-15T10:34:06.190Z,4.40
2017-11-15T10:36:33.741Z,5.20
2017-11-15T10:39:01.186Z,5.40
2017-11-15T10:41:28.632Z,4.60
2017-11-15T10:43:56.161Z,4.10
2017-11-15T10:46:24.459Z,3.80
2017-11-15T10:48:51.967Z,4.30
2017-11-15T10:51:19.472Z,4.50
2017-11-15T10:53:46.906Z,3.90
2017-11-15T10:56:14.412Z,3.80
2017-11-15T10:58:42.578Z,3.50
2017-11-15T11:01:10.038Z,3.30
2017-11-15T11:03:37.503Z,3.40
2017-11-15T11:06:05.054Z,3.70
2017-11-15T11:08:32.511Z,5.50
2017-11-15T11:10:59.965Z,6.40
2017-11-15T11:13:27.398Z,7.70
2017-11-15T11:15:54.871Z,8.30
2017-11-15T11:18:22.335Z,7.80
2017-11-15T11:20:49.857Z,6.30
2017-11-15T11:23:18.862Z,5.00
2017-11-15T11:25:46.335Z,4.90
2017-11-15T11:28:13.791Z,3.80
2017-11-15T11:30:41.241Z,3.30
2017-11-15T11:33:08.702Z,3.40
2017-11-15T11:35:36.266Z,3.40
2017-11-15T11:38:03.721Z,3.30
2017-11-15T11:40:31.170Z,2.90
2017-11-15T11:42:58.738Z,3.20
2017-11-15T11:45:26.195Z,3.00
2017-11-15T11:47:53.690Z,2.90
2017-11-15T11:50:21.899Z,3.10
2017-11-15T11:52:49.440Z,3.00
2017-11-15T11:55:16.883Z,3.00
2017-11-15T11:57:44.378Z,3.40
2017-11-15T12:00:11.846Z,3.40
2017-11-15T12:02:39.303Z,3.60
2017-11-15T12:05:06.839Z,3.50
2017-11-15T12:07:34.285Z,3.60
2017-11-15T12:10:01.762Z,3.40
2017-11-15T12:12:29.206Z,3.30
2017-11-15T12:14:56.693Z,3.00
2017-11-15T12:17:24.146Z,3.20
2017-11-15T12:19:53.122Z,3.00
2017-11-15T12:22:20.675Z,3.00
2017-11-15T12:24:48.126Z,3.20
2017-11-15T12:27:15.685Z,3.30
2017-11-15T12:29:43.130Z,3.30
2017-11-15T12:32:10.595Z,3.50
2017-11-15T12:34:38.060Z,3.20
2017-11-15T12:37:05.531Z,2.90
2017-11-15T12:39:32.974Z,2.80
2017-11-15T12:42:00.425Z,2.70
2017-11-15T12:44:27.950Z,2.90
2017-11-15T12:46:55.401Z,3.20
2017-11-15T12:49:22.888Z,3.40
2017-11-15T12:51:50.521Z,3.70
2017-11-15T12:54:17.978Z,3.80
2017-11-15T12:56:45.438Z,3.70
2017-11-15T12:59:12.913Z,3.30
2017-11-15T13:01:40.362Z,3.40
2017-11-15T13:04:07.835Z,3.50
2017-11-15T13:06:35.298Z,3.50
2017-11-15T13:09:02.746Z,3.60
2017-11-15T13:11:30.302Z,3.70
2017-11-15T13:13:57.750Z,3.70
2017-11-15T13:16:25.201Z,4.00
2017-11-15T13:18:52.766Z,3.80
2017-11-15T13:21:20.329Z,3.90
2017-11-15T13:23:47.802Z,3.80
2017-11-15T13:26:15.344Z,3.30
2017-11-15T13:28:43.735Z,3.30
2017-11-15T13:31:11.195Z,3.30
2017-11-15T13:33:38.726Z,3.20
2017-11-15T13:36:06.204Z,3.40
2017-11-15T13:38:33.662Z,3.40
2017-11-15T13:41:01.113Z,3.30
2017-11-15T13:43:28.564Z,3.30
2017-11-15T13:45:56.040Z,3.10
2017-11-15T13:48:24.260Z,3.00
2017-11-15T13:50:51.735Z,2.90
2017-11-15T13:53:19.195Z,2.90
2017-11-15T13:55:46.643Z,2.80
2017-11-15T13:58:14.106Z,3.00
2017-11-15T14:00:41.558Z,3.10
2017-11-15T14:03:09.119Z,3.20
2017-11-15T14:05:36.572Z,3.30
2017-11-15T14:08:04.027Z,3.40
2017-11-15T14:10:31.466Z,3.30
2017-11-15T14:12:58.937Z,3.20
2017-11-15T14:15:26.401Z,3.00
2017-11-15T14:17:53.912Z,3.10
2017-11-15T14:20:21.399Z,3.10
2017-11-15T14:22:48.852Z,3.10
2017-11-15T14:25:16.498Z,3.00
2017-11-15T14:27:43.955Z,2.60
2017-11-15T14:30:11.425Z,2.40
2017-11-15T14:32:38.999Z,2.40
2017-11-15T14:35:06.471Z,2.40
2017-11-15T14:37:34.006Z,2.30
2017-11-15T14:40:01.486Z,2.30
2017-11-15T14:42:29.702Z,2.10
2017-11-15T14:44:57.151Z,2.00
2017-11-15T14:47:24.619Z,2.20
2017-11-15T14:49:52.078Z,2.30
2017-11-15T14:52:19.531Z,2.30
2017-11-15T14:54:47.008Z,2.30
2017-11-15T14:57:14.472Z,2.40
2017-11-15T14:59:42.017Z,2.30
2017-11-15T15:02:09.603Z,2.20
2017-11-15T15:04:37.187Z,2.00
2017-11-15T15:07:04.666Z,2.20
2017-11-15T15:09:32.148Z,2.30
2017-11-15T15:11:59.607Z,2.20
2017-11-15T15:14:27.137Z,2.10
2017-11-15T15:16:54.622Z,2.10
2017-11-15T15:19:22.074Z,2.20
2017-11-15T15:21:49.707Z,2.30
2017-11-15T15:24:17.199Z,2.00
2017-11-15T15:26:44.746Z,2.00
2017-11-15T15:29:12.209Z,1.80
2017-11-15T15:31:39.666Z,1.80
2017-11-15T15:34:07.226Z,1.80
2017-11-15T15:36:34.862Z,1.70
2017-11-15T15:39:03.083Z,1.70
2017-11-15T15:41:31.325Z,1.60
2017-11-15T15:43:58.783Z,1.60
2017-11-15T15:46:26.234Z,1.80
2017-11-15T15:48:53.816Z,1.80
2017-11-15T15:51:21.365Z,1.80
2017-11-15T15:53:48.805Z,1.70
2017-11-15T15:56:16.257Z,1.70
2017-11-15T15:58:44.378Z,1.90
2017-11-15T16:01:11.827Z,1.80
2017-11-15T16:03:40.043Z,1.70
2017-11-15T16:06:07.496Z,1.60
2017-11-15T16:08:34.971Z,1.70
2017-11-15T16:11:02.431Z,1.70
2017-11-15T16:13:29.990Z,1.70
2017-11-15T16:15:57.496Z,1.70
2017-11-15T16:18:25.009Z,1.70
2017-11-15T16:20:52.465Z,1.70
2017-11-15T16:23:19.910Z,1.70
2017-11-15T16:25:47.389Z,1.80
2017-11-15T16:28:15.720Z,1.90
2017-11-15T16:30:43.171Z,1.80
2017-11-15T16:33:10.728Z,1.90
2017-11-15T16:35:38.179Z,1.70
2017-11-15T16:38:05.680Z,1.70
2017-11-15T16:40:33.166Z,1.50
2017-11-15T16:43:00.701Z,1.60
2017-11-15T16:45:28.130Z,1.70
2017-11-15T16:47:55.690Z,1.60
2017-11-15T16:50:23.184Z,1.50
2017-11-15T16:52:51.444Z,1.30
2017-11-15T16:55:19.056Z,1.30
2017-11-15T16:57:46.533Z,1.40
2017-11-15T17:00:13.986Z,1.40
2017-11-15T17:02:41.550Z,1.50
2017-11-15T17:05:09.002Z,1.30
2017-11-15T17:07:36.482Z,1.40
2017-11-15T17:10:03.997Z,1.50
2017-11-15T17:12:31.489Z,1.30
2017-11-15T17:14:58.938Z,1.20
2017-11-15T17:17:26.453Z,1.20
2017-11-15T17:19:53.920Z,1.40
2017-11-15T17:22:21.369Z,1.50
2017-11-15T17:24:48.827Z,1.40
2017-11-15T17:27:16.305Z,1.20
2017-11-15T17:29:43.782Z,1.20
2017-11-15T17:32:11.265Z,1.20
2017-11-15T17:34:38.762Z,1.30
2017-11-15T17:37:06.208Z,1.20
2017-11-15T17:39:33.750Z,1.30
2017-11-15T17:42:01.218Z,1.30
2017-11-15T17:44:28.654Z,1.30
2017-11-15T17:46:56.129Z,1.30
2017-11-15T17:49:23.688Z,1.40
2017-11-15T17:51:51.247Z,1.50
2017-11-15T17:54:18.686Z,1.50
2017-11-15T17:56:46.146Z,1.40
2017-11-15T17:59:13.594Z,1.40
2017-11-15T18:01:41.041Z,1.20
2017-11-15T18:04:08.549Z,1.10
2017-11-15T18:06:36.126Z,1.10
2017-11-15T18:09:03.580Z,1.00
2017-11-15T18:11:31.039Z,1.00
2017-11-15T18:13:58.587Z,1.10
2017-11-15T18:16:26.167Z,1.40
2017-11-15T18:18:54.379Z,1.50
2017-11-15T18:21:21.939Z,1.50
2017-11-15T18:23:49.378Z,1.40
2017-11-15T18:26:16.831Z,1.20
2017-11-15T18:28:44.297Z,1.00
2017-11-15T18:31:11.812Z,1.00
2017-11-15T18:33:39.253Z,1.00
2017-11-15T18:36:06.720Z,1.10
2017-11-15T18:38:34.178Z,1.10
2017-11-15T18:41:01.636Z,1.40
2017-11-15T18:43:29.139Z,1.50
2017-11-15T18:45:56.570Z,1.20
2017-11-15T18:48:24.033Z,1.00
2017-11-15T18:50:51.549Z,1.20
2017-11-15T18:53:20.551Z,1.20
2017-11-15T18:55:48.151Z,1.10
2017-11-15T18:58:15.602Z,0.90
2017-11-15T19:00:43.047Z,0.90
2017-11-15T19:03:10.513Z,0.90
2017-11-15T19:05:38.034Z,0.80
2017-11-15T19:08:05.492Z,0.80
2017-11-15T19:10:32.950Z,0.70
2017-11-15T19:13:01.267Z,1.00
2017-11-15T19:15:28.714Z,1.00
2017-11-15T19:17:56.177Z,0.90
2017-11-15T19:20:23.634Z,0.70
2017-11-15T19:22:51.094Z,0.70
2017-11-15T19:25:18.546Z,0.70
2017-11-15T19:27:45.998Z,0.90
2017-11-15T19:30:13.504Z,0.90
2017-11-15T19:32:40.991Z,0.90
2017-11-15T19:35:09.223Z,0.70
2017-11-15T19:37:36.691Z,0.60
2017-11-15T19:40:04.234Z,0.70
2017-11-15T19:42:31.835Z,0.80
2017-11-15T19:44:59.291Z,1.00
2017-11-15T19:47:26.748Z,0.90
2017-11-15T19:49:54.234Z,0.90
2017-11-15T19:52:21.717Z,1.00
2017-11-15T19:54:49.173Z,1.20
2017-11-15T19:57:16.654Z,1.20
2017-11-15T19:59:44.106Z,1.20
2017-11-15T20:02:12.322Z,1.10
2017-11-15T20:04:39.817Z,1.00
2017-11-15T20:07:07.368Z,1.00
2017-11-15T20:09:34.818Z,1.00
2017-11-15T20:12:02.280Z,0.90
2017-11-15T20:14:29.722Z,0.80
2017-11-15T20:16:57.186Z,0.60
2017-11-15T20:19:24.641Z,0.60
2017-11-15T20:21:52.202Z,0.70
2017-11-15T20:24:19.717Z,0.60
2017-11-15T20:26:47.223Z,0.80
2017-11-15T20:29:14.703Z,0.60
2017-11-15T20:31:42.937Z,0.50
2017-11-15T20:34:10.415Z,0.50
2017-11-15T20:36:37.958Z,0.50
2017-11-15T20:39:05.411Z,0.50
2017-11-15T20:41:32.967Z,0.50
2017-11-15T20:44:00.535Z,0.50
2017-11-15T20:46:27.987Z,0.60
2017-11-15T20:48:55.561Z,0.50
2017-11-15T20:51:23.094Z,0.70
2017-11-15T20:53:50.541Z,0.80
2017-11-15T20:56:18.019Z,0.90
2017-11-15T20:58:45.730Z,0.80
2017-11-15T21:01:13.226Z,0.60
2017-11-15T21:03:40.686Z,0.60
2017-11-15T21:06:08.166Z,0.60
2017-11-15T21:08:36.428Z,0.60
2017-11-15T21:11:03.970Z,0.50
2017-11-15T21:13:31.526Z,0.60
2017-11-15T21:15:58.982Z,0.60
2017-11-15T21:18:26.434Z,0.50
2017-11-15T21:20:53.890Z,0.50
2017-11-15T21:23:21.354Z,0.60
2017-11-15T21:25:48.942Z,0.50
2017-11-15T21:28:17.164Z,0.30
2017-11-15T21:30:44.608Z,0.30
2017-11-15T21:33:12.174Z,0.40
2017-11-15T21:35:40.747Z,0.50
2017-11-15T21:38:08.232Z,0.60
2017-11-15T21:40:35.763Z,0.60
2017-11-15T21:43:03.250Z,0.60
2017-11-15T21:45:30.802Z,0.70
2017-11-15T21:47:58.402Z,0.70
2017-11-15T21:50:26.609Z,0.50
2017-11-15T21:52:54.070Z,0.40
2017-11-15T21:55:21.518Z,0.40
2017-11-15T21:57:48.972Z,0.40
2017-11-15T22:00:16.465Z,0.70
2017-11-15T22:02:44.013Z,0.50
2017-11-15T22:05:11.574Z,0.60
2017-11-15T22:07:39.134Z,0.60
2017-11-15T22:10:06.593Z,0.60
2017-11-15T22:12:34.806Z,0.50
2017-11-15T22:15:02.258Z,0.40
2017-11-15T22:17:30.470Z,0.80
2017-11-15T22:19:57.920Z,0.70
2017-11-15T22:22:25.401Z,0.90
2017-11-15T22:24:52.850Z,1.00
2017-11-15T22:27:20.309Z,0.90
2017-11-15T22:29:47.866Z,0.70
2017-11-15T22:32:15.311Z,0.50
2017-11-15T22:34:42.852Z,0.60
2017-11-15T22:37:10.282Z,0.60
2017-11-15T22:39:37.739Z,0.50
2017-11-15T22:42:05.188Z,0.50
2017-11-15T22:44:33.413Z,0.60
2017-11-15T22:47:00.875Z,0.60
2017-11-15T22:49:28.448Z,0.80
2017-11-15T22:51:55.909Z,0.80
2017-11-15T22:54:24.162Z,0.80
2017-11-15T22:56:51.618Z,0.70
2017-11-15T22:59:19.079Z,0.70
2017-11-15T23:01:46.548Z,0.90
2017-11-15T23:04:14.091Z,0.80
2017-11-15T23:06:41.548Z,0.80
2017-11-15T23:09:09.135Z,1.00
2017-11-15T23:11:37.450Z,0.90
2017-11-15T23:14:04.934Z,0.80
2017-11-15T23:16:32.522Z,0.80
2017-11-15T23:18:59.972Z,0.80
2017-11-15T23:21:28.246Z,0.90
2017-11-15T23:23:55.718Z,1.00
2017-11-15T23:26:23.938Z,0.80
2017-11-15T23:28:51.392Z,0.70
2017-11-15T23:31:18.846Z,0.70
2017-11-15T23:33:46.310Z,0.90
2017-11-15T23:36:13.873Z,0.80
2017-11-15T23:38:41.342Z,0.90
2017-11-15T23:41:08.913Z,0.80
2017-11-15T23:43:37.165Z,0.70
2017-11-15T23:46:04.624Z,0.60
2017-11-15T23:48:32.070Z,0.90
2017-11-15T23:50:59.528Z,0.60
2017-11-15T23:53:26.974Z,0.60
2017-11-15T23:55:54.449Z,0.50
2017-11-15T23:58:21.895Z,0.50
